Time;durP1;ratioP1;P1;durP2;ratioP2;P2;SDS_P1;SDS_P2;PMS_P1;PMS_P2;Temp;Humidity;BMP_temperature;BMP_pressure;BME280_temperature;BME280_humidity;BME280_pressure;Samples;Min_cycle;Max_cycle;Signal;HPM_P1;HPM_P2
2021/05/01 00:01:50;;;;;;;33.13;22.38;;;6.90;99.90;;;;;;4970280;28;20606;-87
2021/05/01 00:04:15;;;;;;;31.58;21.15;;;7.00;99.90;;;;;;4957691;28;20518;-87
2021/05/01 00:06:41;;;;;;;34.53;22.77;;;7.00;99.90;;;;;;4940020;29;20424;-87
2021/05/01 00:09:07;;;;;;;35.45;22.40;;;7.00;99.90;;;;;;4964187;28;20101;-86
2021/05/01 00:11:32;;;;;;;36.33;22.67;;;7.30;99.90;;;;;;4950302;29;20034;-86
2021/05/01 00:13:59;;;;;;;33.83;23.00;;;7.00;99.90;;;;;;4969911;28;20027;-86
2021/05/01 00:16:26;;;;;;;36.13;22.83;;;7.00;99.90;;;;;;4957117;28;20031;-86
2021/05/01 00:18:52;;;;;;;37.35;23.42;;;7.00;99.90;;;;;;4953767;28;20122;-86
2021/05/01 00:21:18;;;;;;;35.70;23.70;;;7.00;99.90;;;;;;4955243;28;20027;-87
2021/05/01 00:23:44;;;;;;;39.07;24.80;;;7.00;99.90;;;;;;4954936;28;20027;-87
2021/05/01 00:26:12;;;;;;;39.03;24.87;;;7.00;99.90;;;;;;4969072;28;20058;-87
2021/05/01 00:28:39;;;;;;;36.50;24.70;;;7.00;99.90;;;;;;4957242;28;20039;-87
2021/05/01 00:31:05;;;;;;;38.23;24.80;;;7.00;99.90;;;;;;4954616;28;20484;-87
2021/05/01 00:33:31;;;;;;;39.97;25.30;;;6.90;99.90;;;;;;4960308;28;20027;-87
2021/05/01 00:35:57;;;;;;;39.70;25.30;;;6.90;99.90;;;;;;4955389;28;20065;-87
2021/05/01 00:38:22;;;;;;;41.30;24.38;;;6.90;99.90;;;;;;4952327;28;20433;-87
2021/05/01 00:40:48;;;;;;;42.03;25.37;;;6.90;99.90;;;;;;4971275;28;20031;-88
2021/05/01 00:43:14;;;;;;;41.27;24.60;;;6.90;99.90;;;;;;4961287;28;20500;-87
2021/05/01 00:45:39;;;;;;;36.80;23.57;;;6.80;99.90;;;;;;4947057;28;20027;-87
2021/05/01 00:48:05;;;;;;;41.60;24.27;;;6.80;99.90;;;;;;4967952;28;20050;-87
2021/05/01 00:50:31;;;;;;;37.73;23.27;;;6.80;99.90;;;;;;4940909;28;20023;-87
2021/05/01 00:52:56;;;;;;;42.80;25.07;;;6.80;99.90;;;;;;4956713;28;20026;-88
2021/05/01 00:55:23;;;;;;;41.43;26.43;;;6.80;99.90;;;;;;4973454;28;20506;-87
2021/05/01 00:57:49;;;;;;;37.57;23.73;;;6.80;99.90;;;;;;4946376;28;20492;-87
2021/05/01 01:00:32;;;;;;;39.80;24.30;;;6.80;99.90;;;;;;4947596;29;20028;-88
2021/05/01 01:02:58;;;;;;;35.90;23.23;;;6.80;99.90;;;;;;4956206;28;20089;-87
2021/05/01 01:05:24;;;;;;;37.63;23.40;;;6.80;99.90;;;;;;4957388;28;20660;-86
2021/05/01 01:07:50;;;;;;;40.07;24.33;;;6.80;99.90;;;;;;4963267;28;20389;-87
2021/05/01 01:10:16;;;;;;;37.80;23.92;;;6.80;99.90;;;;;;4956500;28;20034;-87
2021/05/01 01:12:42;;;;;;;39.97;26.03;;;6.90;99.90;;;;;;4971371;28;20022;-87
2021/05/01 01:15:08;;;;;;;41.33;24.80;;;6.90;99.90;;;;;;4953741;28;20027;-87
2021/05/01 01:17:36;;;;;;;37.63;23.98;;;6.90;99.90;;;;;;4962670;28;20038;-87
2021/05/01 01:20:03;;;;;;;37.77;23.17;;;6.90;99.90;;;;;;4956236;28;20023;-86
2021/05/01 01:22:29;;;;;;;37.25;23.88;;;6.90;99.90;;;;;;4941281;28;20114;-86
2021/05/01 01:24:54;;;;;;;38.97;24.53;;;6.90;99.90;;;;;;4953271;28;20236;-87
2021/05/01 01:27:20;;;;;;;38.93;24.73;;;6.90;99.90;;;;;;4966472;28;20029;-86
2021/05/01 01:29:48;;;;;;;38.00;24.47;;;6.90;99.90;;;;;;4945998;28;20433;-87
2021/05/01 01:32:13;;;;;;;37.67;24.25;;;6.90;99.90;;;;;;4952931;28;20119;-87
2021/05/01 01:34:44;;;;;;;36.63;24.23;;;7.00;99.90;;;;;;4969316;28;20194;-87
2021/05/01 01:37:10;;;;;;;35.13;23.57;;;7.00;99.90;;;;;;4955558;28;20445;-87
2021/05/01 01:39:36;;;;;;;41.63;25.10;;;7.20;99.90;;;;;;4956174;28;20029;-87
2021/05/01 01:42:02;;;;;;;38.20;24.63;;;7.00;99.90;;;;;;4946028;28;20055;-88
2021/05/01 01:44:28;;;;;;;39.25;24.60;;;7.10;99.90;;;;;;4953789;28;20401;-87
2021/05/01 01:46:53;;;;;;;39.45;24.00;;;7.00;99.90;;;;;;4969472;28;20026;-87
2021/05/01 01:49:19;;;;;;;42.70;25.65;;;6.90;99.90;;;;;;4958856;28;20026;-87
2021/05/01 01:51:45;;;;;;;37.95;23.20;;;6.90;99.90;;;;;;4973221;28;20066;-87
2021/05/01 01:54:10;;;;;;;37.90;24.63;;;6.90;99.90;;;;;;4955919;28;20023;-87
2021/05/01 01:56:39;;;;;;;41.77;25.43;;;6.90;99.90;;;;;;4947922;28;20123;-87
2021/05/01 01:59:05;;;;;;;39.38;24.75;;;6.90;99.90;;;;;;4970579;28;20023;-87
2021/05/01 02:01:35;;;;;;;40.43;24.43;;;7.00;99.90;;;;;;4952990;28;20114;-87
2021/05/01 02:04:01;;;;;;;41.03;24.88;;;7.00;99.90;;;;;;4961292;28;20058;-86
2021/05/01 02:06:27;;;;;;;40.08;25.48;;;7.00;99.90;;;;;;4953100;28;20109;-87
2021/05/01 02:08:52;;;;;;;39.65;24.63;;;7.00;99.90;;;;;;4953294;28;20056;-87
2021/05/01 02:11:18;;;;;;;39.75;24.23;;;7.10;99.90;;;;;;4957506;28;20054;-87
2021/05/01 02:13:45;;;;;;;40.17;25.08;;;7.00;99.90;;;;;;4947838;29;20034;-87
2021/05/01 02:16:12;;;;;;;39.35;24.45;;;7.30;99.90;;;;;;4953322;28;20027;-87
2021/05/01 02:18:37;;;;;;;40.75;25.48;;;7.00;99.90;;;;;;4968171;28;20034;-87
2021/05/01 02:21:03;;;;;;;39.23;24.80;;;7.10;99.90;;;;;;4950961;28;20035;-87
2021/05/01 02:23:29;;;;;;;41.77;25.27;;;7.00;99.90;;;;;;4953485;28;20411;-87
2021/05/01 02:25:55;;;;;;;43.73;26.63;;;7.00;99.90;;;;;;4962446;28;20493;-87
2021/05/01 02:28:20;;;;;;;42.33;25.95;;;7.00;99.90;;;;;;4966602;28;20075;-87
2021/05/01 02:30:46;;;;;;;46.47;27.08;;;7.00;99.90;;;;;;4955629;28;20090;-88
2021/05/01 02:33:12;;;;;;;40.97;25.27;;;7.00;99.90;;;;;;4940204;28;20023;-86
2021/05/01 02:35:39;;;;;;;42.60;26.37;;;7.00;99.90;;;;;;4949332;29;20034;-87
2021/05/01 02:38:05;;;;;;;42.63;25.13;;;6.90;99.90;;;;;;4964046;28;20035;-86
2021/05/01 02:40:32;;;;;;;43.10;26.60;;;7.00;99.90;;;;;;4955978;28;20169;-87
2021/05/01 02:43:00;;;;;;;40.67;25.63;;;7.00;99.90;;;;;;4972471;28;20365;-86
2021/05/01 02:45:26;;;;;;;40.60;25.27;;;7.00;99.90;;;;;;4953455;28;20027;-87
2021/05/01 02:47:51;;;;;;;43.30;25.87;;;7.00;99.90;;;;;;4962029;28;20026;-86
2021/05/01 02:50:18;;;;;;;46.08;26.10;;;6.90;99.90;;;;;;4959880;28;20030;-87
2021/05/01 02:52:44;;;;;;;42.00;26.27;;;6.90;99.90;;;;;;4945640;29;20027;-87
2021/05/01 02:55:11;;;;;;;42.85;26.13;;;6.90;99.90;;;;;;4973679;28;20396;-87
2021/05/01 02:57:37;;;;;;;43.30;26.75;;;6.90;99.90;;;;;;4970638;28;20030;-87
2021/05/01 03:00:08;;;;;;;46.37;26.93;;;6.90;99.90;;;;;;4960136;28;20127;-87
2021/05/01 03:02:34;;;;;;;44.03;27.58;;;6.90;99.90;;;;;;4960139;28;20504;-88
2021/05/01 03:04:59;;;;;;;41.80;26.30;;;6.90;99.90;;;;;;4943186;28;20118;-88
2021/05/01 03:07:25;;;;;;;47.45;28.90;;;6.90;99.90;;;;;;4956740;28;20389;-88
2021/05/01 03:09:51;;;;;;;46.50;27.90;;;6.90;99.90;;;;;;4963208;28;20034;-88
2021/05/01 03:12:17;;;;;;;45.80;28.00;;;6.90;99.90;;;;;;4959360;28;20031;-88
2021/05/01 03:14:44;;;;;;;45.43;27.10;;;6.90;99.90;;;;;;4958780;28;20023;-88
2021/05/01 03:17:11;;;;;;;44.67;26.83;;;7.00;99.90;;;;;;4956949;28;20019;-88
2021/05/01 03:19:38;;;;;;;45.67;27.40;;;7.00;99.90;;;;;;4956719;28;20507;-87
2021/05/01 03:22:05;;;;;;;50.27;28.77;;;7.00;99.90;;;;;;4965079;28;20113;-87
2021/05/01 03:24:31;;;;;;;45.72;27.55;;;6.90;99.90;;;;;;4960180;28;20033;-87
2021/05/01 03:26:57;;;;;;;47.35;27.50;;;6.90;99.90;;;;;;4952723;28;20026;-88
2021/05/01 03:29:23;;;;;;;46.60;28.25;;;6.90;99.90;;;;;;4972283;28;20459;-87
2021/05/01 03:31:49;;;;;;;43.22;26.85;;;6.90;99.90;;;;;;4963183;28;20496;-87
2021/05/01 03:34:14;;;;;;;50.13;28.83;;;6.80;99.90;;;;;;4949924;29;20504;-88
2021/05/01 03:36:40;;;;;;;50.50;28.90;;;6.90;99.90;;;;;;4958037;29;20027;-88
2021/05/01 03:39:06;;;;;;;48.87;28.00;;;6.90;99.90;;;;;;4956402;28;20035;-87
2021/05/01 03:41:32;;;;;;;43.60;27.40;;;6.90;99.90;;;;;;4956479;28;20034;-87
2021/05/01 03:43:58;;;;;;;44.63;27.27;;;6.90;99.90;;;;;;4956043;29;20027;-87
2021/05/01 03:46:24;;;;;;;48.35;27.13;;;6.80;99.90;;;;;;4957842;28;20102;-87
2021/05/01 03:48:50;;;;;;;45.90;27.97;;;6.80;99.90;;;;;;4956153;28;20058;-87
2021/05/01 03:51:16;;;;;;;48.53;29.05;;;6.80;99.90;;;;;;4963916;28;20026;-87
2021/05/01 03:53:41;;;;;;;52.03;31.17;;;6.80;99.90;;;;;;4954196;29;20023;-87
2021/05/01 03:56:07;;;;;;;49.83;28.80;;;6.80;99.90;;;;;;4957357;28;20031;-87
2021/05/01 03:58:33;;;;;;;49.33;28.40;;;6.90;99.90;;;;;;4976200;28;20050;-87
2021/05/01 04:00:59;;;;;;;45.17;27.67;;;6.80;99.90;;;;;;4944713;29;20027;-86
2021/05/01 04:03:24;;;;;;;48.07;28.20;;;7.20;99.90;;;;;;4957163;28;20043;-87
2021/05/01 04:05:50;;;;;;;51.53;30.27;;;6.90;99.90;;;;;;4954596;29;20366;-87
2021/05/01 04:08:15;;;;;;;49.00;29.30;;;6.90;99.90;;;;;;4955948;28;20031;-87
2021/05/01 04:10:41;;;;;;;50.38;28.40;;;6.80;99.90;;;;;;4967450;28;20027;-87
2021/05/01 04:13:07;;;;;;;48.83;29.30;;;6.80;99.90;;;;;;4943677;29;20090;-87
2021/05/01 04:15:32;;;;;;;52.80;29.85;;;6.80;99.90;;;;;;4955803;28;20042;-87
2021/05/01 04:17:58;;;;;;;49.47;29.97;;;6.90;99.90;;;;;;4960323;28;20392;-87
2021/05/01 04:20:24;;;;;;;49.92;28.85;;;6.80;99.90;;;;;;4949053;29;20066;-87
2021/05/01 04:22:49;;;;;;;50.23;30.50;;;6.80;99.90;;;;;;4953696;29;20408;-88
2021/05/01 04:25:15;;;;;;;50.80;30.53;;;6.90;99.90;;;;;;4970321;28;20034;-86
2021/05/01 04:27:41;;;;;;;51.00;29.67;;;6.90;99.90;;;;;;4948935;28;20034;-87
2021/05/01 04:30:08;;;;;;;45.77;28.40;;;6.90;99.90;;;;;;4960120;28;20034;-86
2021/05/01 04:32:34;;;;;;;47.40;28.57;;;6.90;99.90;;;;;;4957240;28;20046;-87
2021/05/01 04:35:01;;;;;;;49.30;29.63;;;6.90;99.90;;;;;;4956507;28;20042;-87
2021/05/01 04:37:26;;;;;;;53.20;30.53;;;6.90;99.90;;;;;;4972684;28;20031;-88
2021/05/01 04:39:52;;;;;;;50.97;29.73;;;7.00;99.90;;;;;;4957205;28;20109;-87
2021/05/01 04:42:18;;;;;;;52.88;30.23;;;7.00;99.90;;;;;;4974361;28;20085;-87
2021/05/01 04:44:44;;;;;;;53.00;29.67;;;7.00;99.90;;;;;;4964076;28;20616;-87
2021/05/01 04:47:10;;;;;;;54.07;31.50;;;7.00;99.90;;;;;;4955832;28;20165;-87
2021/05/01 04:49:36;;;;;;;54.23;31.93;;;6.90;99.90;;;;;;4969245;28;20492;-87
2021/05/01 04:52:03;;;;;;;56.07;32.73;;;7.20;99.90;;;;;;4958614;28;20085;-88
2021/05/01 04:54:28;;;;;;;49.83;29.93;;;6.90;99.90;;;;;;4956547;28;20031;-88
2021/05/01 04:56:54;;;;;;;52.87;30.93;;;6.90;99.90;;;;;;4945765;29;20179;-87
2021/05/01 04:59:20;;;;;;;52.53;30.20;;;6.90;99.90;;;;;;4970124;28;20034;-87
2021/05/01 05:01:45;;;;;;;48.33;30.57;;;7.00;99.90;;;;;;4960931;28;20583;-88
2021/05/01 05:04:11;;;;;;;50.50;30.97;;;7.00;99.90;;;;;;4952840;29;20031;-87
2021/05/01 05:06:36;;;;;;;51.53;31.60;;;6.90;99.90;;;;;;4938747;29;20109;-87
2021/05/01 05:09:02;;;;;;;53.50;30.53;;;6.90;99.90;;;;;;4957823;28;20477;-87
2021/05/01 05:11:29;;;;;;;52.37;30.30;;;7.00;99.90;;;;;;4957977;28;20060;-87
2021/05/01 05:13:55;;;;;;;51.20;29.80;;;7.00;99.90;;;;;;4974303;28;20023;-87
2021/05/01 05:16:20;;;;;;;50.67;29.80;;;7.00;99.90;;;;;;4960121;28;20038;-87
2021/05/01 05:18:46;;;;;;;54.43;31.43;;;7.10;99.90;;;;;;4963796;28;20023;-87
2021/05/01 05:21:12;;;;;;;51.57;29.63;;;7.10;99.90;;;;;;4965987;28;20027;-88
2021/05/01 05:23:37;;;;;;;47.22;29.10;;;7.10;99.90;;;;;;4961697;28;20042;-88
2021/05/01 05:26:03;;;;;;;48.60;28.83;;;7.10;99.90;;;;;;4958227;28;20404;-87
2021/05/01 05:28:29;;;;;;;48.42;28.70;;;7.00;99.90;;;;;;4957991;28;20600;-86
2021/05/01 05:30:56;;;;;;;46.73;28.40;;;7.00;99.90;;;;;;4956561;28;20027;-87
2021/05/01 05:33:22;;;;;;;49.28;28.27;;;7.00;99.90;;;;;;4956412;28;20023;-87
2021/05/01 05:35:47;;;;;;;54.63;30.50;;;7.10;99.90;;;;;;4941195;28;20031;-88
2021/05/01 05:38:13;;;;;;;51.40;29.97;;;7.10;99.90;;;;;;4950858;29;20038;-87
2021/05/01 05:40:42;;;;;;;48.53;29.23;;;7.20;99.90;;;;;;4953547;28;20036;-87
2021/05/01 05:43:11;;;;;;;42.50;25.70;;;7.30;99.90;;;;;;4965218;28;20042;-88
2021/05/01 05:45:38;;;;;;;46.03;27.70;;;7.40;99.90;;;;;;4955503;28;20512;-87
2021/05/01 05:48:04;;;;;;;45.65;27.42;;;7.50;99.90;;;;;;4971555;28;20027;-87
2021/05/01 05:50:31;;;;;;;42.47;25.67;;;7.60;99.90;;;;;;4973573;28;20499;-87
2021/05/01 05:52:56;;;;;;;42.22;25.33;;;7.60;99.90;;;;;;4956274;28;20144;-87
2021/05/01 05:55:22;;;;;;;42.05;25.58;;;7.70;99.90;;;;;;4956023;28;20070;-87
2021/05/01 05:57:52;;;;;;;43.03;26.00;;;7.70;99.90;;;;;;4940176;28;20086;-88
2021/05/01 06:00:20;;;;;;;38.47;23.90;;;7.80;99.90;;;;;;4951081;29;20426;-87
2021/05/01 06:02:46;;;;;;;44.77;27.00;;;7.80;99.90;;;;;;4960886;28;20330;-88
2021/05/01 06:05:20;;;;;;;40.65;24.80;;;7.80;99.90;;;;;;4955534;28;20042;-88
2021/05/01 06:07:51;;;;;;;39.33;25.02;;;7.80;99.90;;;;;;4939690;28;20090;-87
2021/05/01 06:10:17;;;;;;;40.45;25.08;;;7.80;99.90;;;;;;4952378;29;20023;-87
2021/05/01 06:12:44;;;;;;;38.22;21.90;;;7.80;99.90;;;;;;4960553;28;20057;-88
2021/05/01 06:15:13;;;;;;;33.83;21.20;;;7.70;99.90;;;;;;4955320;28;20031;-87
2021/05/01 06:17:41;;;;;;;37.15;22.80;;;7.60;99.90;;;;;;4940799;28;20090;-88
2021/05/01 06:20:09;;;;;;;37.08;22.92;;;7.50;99.90;;;;;;4979076;28;21163;-89
2021/05/01 06:22:35;;;;;;;39.22;23.20;;;7.50;99.90;;;;;;4951845;28;20035;-88
2021/05/01 06:25:02;;;;;;;40.17;24.67;;;7.50;99.90;;;;;;4966818;28;20027;-87
2021/05/01 06:27:27;;;;;;;38.22;23.63;;;7.60;99.90;;;;;;4958719;28;20027;-87
2021/05/01 06:29:53;;;;;;;36.67;23.02;;;7.60;99.90;;;;;;4973876;28;20077;-87
2021/05/01 06:32:20;;;;;;;36.50;21.58;;;7.70;99.90;;;;;;4956391;28;20058;-87
2021/05/01 06:34:52;;;;;;;34.22;21.13;;;7.60;99.90;;;;;;4972623;28;20019;-88
2021/05/01 06:37:20;;;;;;;35.75;22.60;;;7.70;99.90;;;;;;4972493;28;20435;-89
2021/05/01 06:39:48;;;;;;;36.47;23.65;;;7.60;99.90;;;;;;4972398;28;20504;-87
2021/05/01 06:42:19;;;;;;;38.72;21.10;;;7.60;99.90;;;;;;4962347;28;20035;-86
2021/05/01 06:44:50;;;;;;;35.13;21.77;;;7.60;99.90;;;;;;4976084;28;20062;-87
2021/05/01 06:47:23;;;;;;;32.40;20.70;;;7.70;99.90;;;;;;4976891;28;20031;-87
2021/05/01 06:50:04;;;;;;;32.92;20.80;;;7.60;99.90;;;;;;4961088;28;20426;-87
2021/05/01 06:52:31;;;;;;;37.47;23.45;;;7.60;99.90;;;;;;4973264;28;20511;-87
2021/05/01 06:55:01;;;;;;;30.27;19.88;;;7.50;99.90;;;;;;4975953;28;20019;-87
2021/05/01 06:57:31;;;;;;;33.40;21.55;;;7.50;99.90;;;;;;4970405;28;20029;-88
2021/05/01 06:59:58;;;;;;;32.10;20.15;;;7.50;99.90;;;;;;4969880;28;20020;-87
2021/05/01 07:02:31;;;;;;;34.90;21.27;;;7.60;99.90;;;;;;4959327;28;20082;-87
2021/05/01 07:04:58;;;;;;;31.40;20.85;;;7.60;99.90;;;;;;4984145;28;20027;-87
2021/05/01 07:07:27;;;;;;;35.20;22.38;;;7.60;99.90;;;;;;4958990;28;20487;-88
2021/05/01 07:09:53;;;;;;;37.33;22.17;;;7.70;99.90;;;;;;4973472;28;20034;-87
2021/05/01 07:12:23;;;;;;;36.60;22.95;;;7.70;99.90;;;;;;4970744;28;20546;-87
2021/05/01 07:14:49;;;;;;;40.67;25.20;;;7.70;99.90;;;;;;4977261;28;20027;-87
2021/05/01 07:17:15;;;;;;;40.45;23.63;;;7.80;99.90;;;;;;4965700;28;20033;-87
2021/05/01 07:19:42;;;;;;;36.97;23.00;;;7.80;99.90;;;;;;4972768;28;20141;-87
2021/05/01 07:22:09;;;;;;;38.45;23.90;;;7.90;99.90;;;;;;4962985;28;20031;-87
2021/05/01 07:24:35;;;;;;;38.42;24.23;;;7.90;99.90;;;;;;4974764;28;20107;-87
2021/05/01 07:27:01;;;;;;;38.65;25.15;;;7.90;99.90;;;;;;4962740;28;20058;-87
2021/05/01 07:29:33;;;;;;;40.33;24.00;;;7.90;99.90;;;;;;4980570;28;20031;-87
2021/05/01 07:32:01;;;;;;;33.85;22.00;;;7.90;99.90;;;;;;4983354;28;20027;-88
2021/05/01 07:34:29;;;;;;;37.00;23.38;;;8.00;99.90;;;;;;4954768;28;20117;-87
2021/05/01 07:36:59;;;;;;;36.88;24.13;;;8.10;99.90;;;;;;4961188;28;20109;-87
2021/05/01 07:39:27;;;;;;;40.20;25.08;;;8.10;99.90;;;;;;4976886;28;20023;-87
2021/05/01 07:41:57;;;;;;;36.47;23.98;;;8.10;99.90;;;;;;4964630;28;20018;-87
2021/05/01 07:44:30;;;;;;;41.92;25.45;;;8.10;99.90;;;;;;4965583;28;20027;-87
2021/05/01 07:46:58;;;;;;;40.03;24.60;;;8.10;99.90;;;;;;4958918;28;20103;-87
2021/05/01 07:49:24;;;;;;;40.35;24.48;;;8.20;99.90;;;;;;4964415;28;20098;-87
2021/05/01 07:51:50;;;;;;;43.90;26.35;;;8.20;99.90;;;;;;4972163;28;20031;-87
2021/05/01 07:54:16;;;;;;;37.75;24.40;;;8.20;99.90;;;;;;4951255;28;20031;-87
2021/05/01 07:56:42;;;;;;;40.47;23.83;;;8.10;99.90;;;;;;4972446;28;20046;-87
2021/05/01 07:59:08;;;;;;;41.42;24.77;;;8.10;99.90;;;;;;4951639;28;20050;-87
2021/05/01 08:01:34;;;;;;;40.63;26.05;;;8.00;99.90;;;;;;4967923;28;20144;-87
2021/05/01 08:04:00;;;;;;;40.28;24.73;;;7.90;99.90;;;;;;4964052;28;20159;-86
2021/05/01 08:06:27;;;;;;;38.03;24.23;;;7.80;99.90;;;;;;4956053;28;20077;-87
2021/05/01 08:08:54;;;;;;;36.35;24.48;;;7.80;99.90;;;;;;4952149;28;20026;-87
2021/05/01 08:11:20;;;;;;;36.25;22.67;;;7.90;99.90;;;;;;4964340;28;20086;-87
2021/05/01 08:13:48;;;;;;;37.92;23.52;;;8.20;99.90;;;;;;4964652;28;20193;-87
2021/05/01 08:16:15;;;;;;;36.83;22.45;;;7.90;99.90;;;;;;4954147;28;20018;-86
2021/05/01 08:18:42;;;;;;;35.72;23.25;;;7.90;99.90;;;;;;4961571;28;20031;-86
2021/05/01 08:21:08;;;;;;;36.13;23.30;;;8.00;99.90;;;;;;4961286;28;20034;-87
2021/05/01 08:23:36;;;;;;;37.13;23.45;;;8.00;99.90;;;;;;4952584;28;20031;-87
2021/05/01 08:26:03;;;;;;;35.38;22.35;;;8.00;99.90;;;;;;4952333;28;20058;-87
2021/05/01 08:28:29;;;;;;;35.70;23.00;;;8.00;99.90;;;;;;4967348;28;20126;-87
2021/05/01 08:30:55;;;;;;;33.38;21.38;;;7.90;99.90;;;;;;4967559;28;20057;-86
2021/05/01 08:33:21;;;;;;;36.60;22.70;;;8.00;99.90;;;;;;4975270;28;20431;-87
2021/05/01 08:35:47;;;;;;;38.22;22.95;;;8.00;99.90;;;;;;4957701;28;20109;-87
2021/05/01 08:38:12;;;;;;;35.55;23.15;;;8.00;99.90;;;;;;4954078;28;20392;-87
2021/05/01 08:40:38;;;;;;;33.83;21.60;;;8.10;99.90;;;;;;4954244;28;20034;-86
2021/05/01 08:43:04;;;;;;;35.45;22.52;;;8.40;99.90;;;;;;4951139;28;20039;-87
2021/05/01 08:45:32;;;;;;;32.95;21.02;;;8.20;99.90;;;;;;4948895;28;20078;-87
2021/05/01 08:48:02;;;;;;;32.05;20.10;;;8.30;99.90;;;;;;4948235;28;20035;-86
2021/05/01 08:50:30;;;;;;;32.03;21.02;;;8.40;99.90;;;;;;4955994;28;20476;-87
2021/05/01 08:52:58;;;;;;;31.40;20.65;;;8.50;99.90;;;;;;4964686;28;20073;-86
2021/05/01 08:55:28;;;;;;;33.30;21.67;;;8.60;99.90;;;;;;4952193;28;20038;-86
2021/05/01 08:57:54;;;;;;;31.27;20.58;;;8.70;99.90;;;;;;4946718;28;20531;-87
2021/05/01 09:00:22;;;;;;;27.88;19.08;;;8.80;99.90;;;;;;4972446;28;20361;-86
2021/05/01 09:02:49;;;;;;;30.85;19.23;;;8.90;99.90;;;;;;4959210;28;20041;-87
2021/05/01 09:05:17;;;;;;;27.73;18.27;;;8.90;99.90;;;;;;4947526;28;20037;-87
2021/05/01 09:07:46;;;;;;;28.00;18.02;;;9.00;99.90;;;;;;4955219;28;20337;-88
2021/05/01 09:10:15;;;;;;;29.35;18.52;;;9.10;99.90;;;;;;4947129;28;20016;-86
2021/05/01 09:12:46;;;;;;;29.80;19.27;;;9.10;99.90;;;;;;4968605;28;20054;-86
2021/05/01 09:15:19;;;;;;;31.25;20.80;;;9.30;99.90;;;;;;4954868;28;20030;-87
2021/05/01 09:17:47;;;;;;;29.35;19.35;;;9.30;99.90;;;;;;4955209;28;20031;-87
2021/05/01 09:20:15;;;;;;;26.17;18.42;;;9.40;99.90;;;;;;4956077;28;20054;-87
2021/05/01 09:22:58;;;;;;;29.10;19.38;;;9.60;99.90;;;;;;4961053;28;20035;-87
2021/05/01 09:25:31;;;;;;;27.88;17.55;;;10.00;99.90;;;;;;4953483;28;20118;-86
2021/05/01 09:28:10;;;;;;;27.23;18.15;;;9.70;99.90;;;;;;4954786;28;20408;-87
2021/05/01 09:30:41;;;;;;;28.08;19.35;;;9.90;99.90;;;;;;4968395;28;20035;-88
2021/05/01 09:33:36;;;;;;;28.92;20.30;;;9.90;99.90;;;;;;4948980;28;20108;-88
2021/05/01 09:36:12;;;;;;;24.77;16.90;;;9.80;99.90;;;;;;4963307;28;20037;-87
2021/05/01 09:38:43;;;;;;;25.05;17.75;;;9.70;99.90;;;;;;4952307;28;20511;-87
2021/05/01 09:41:23;;;;;;;26.15;17.80;;;9.70;99.90;;;;;;4951735;28;20073;-88
2021/05/01 09:43:56;;;;;;;30.15;20.27;;;9.70;99.90;;;;;;4966200;28;20086;-87
2021/05/01 09:46:22;;;;;;;29.55;19.83;;;9.80;99.90;;;;;;4963748;28;20637;-88
2021/05/01 09:49:08;;;;;;;27.67;18.38;;;9.80;99.90;;;;;;4947293;28;20019;-88
2021/05/01 09:51:59;;;;;;;23.75;16.45;;;9.70;99.90;;;;;;4963643;28;20118;-87
2021/05/01 09:54:32;;;;;;;28.08;17.48;;;9.80;99.90;;;;;;4963272;28;20041;-87
2021/05/01 09:57:04;;;;;;;25.00;17.13;;;10.00;99.90;;;;;;4948448;28;20081;-88
2021/05/01 09:59:55;;;;;;;25.88;16.52;;;10.10;99.90;;;;;;4969467;28;20118;-88
2021/05/01 10:02:23;;;;;;;26.27;18.88;;;10.30;99.90;;;;;;4957612;28;20027;-86
2021/05/01 10:05:13;;;;;;;26.83;18.25;;;10.40;99.90;;;;;;4977038;28;20022;-88
2021/05/01 10:07:50;;;;;;;26.35;17.38;;;10.60;99.90;;;;;;4963953;28;20126;-88
2021/05/01 10:10:16;;;;;;;26.13;18.20;;;10.60;99.90;;;;;;4963065;28;20029;-87
2021/05/01 10:12:43;;;;;;;26.73;18.48;;;10.70;99.90;;;;;;4964945;28;20022;-87
2021/05/01 10:15:26;;;;;;;25.05;16.73;;;10.80;99.90;;;;;;4956069;28;20039;-86
2021/05/01 10:17:53;;;;;;;26.70;17.23;;;10.70;99.90;;;;;;4966389;28;20063;-87
2021/05/01 10:20:20;;;;;;;27.45;18.15;;;10.60;99.90;;;;;;4967548;28;20628;-88
2021/05/01 10:22:50;;;;;;;25.35;16.90;;;10.60;99.90;;;;;;4970959;28;20061;-87
2021/05/01 10:25:18;;;;;;;25.52;16.30;;;10.60;99.90;;;;;;4979275;28;20027;-87
2021/05/01 10:27:59;;;;;;;25.95;16.83;;;10.60;99.90;;;;;;4984747;28;20026;-89
2021/05/01 10:30:37;;;;;;;26.27;17.98;;;10.80;99.90;;;;;;4969533;28;20019;-87
2021/05/01 10:33:20;;;;;;;27.70;19.08;;;11.00;99.90;;;;;;4964005;28;20144;-87
2021/05/01 10:35:50;;;;;;;27.92;18.88;;;10.80;99.90;;;;;;4961255;28;20023;-87
2021/05/01 10:38:21;;;;;;;29.13;19.02;;;10.80;99.90;;;;;;4981994;28;20054;-87
2021/05/01 10:41:26;;;;;;;28.55;19.17;;;10.80;99.90;;;;;;4967284;28;20023;-86
2021/05/01 10:43:53;;;;;;;26.60;17.95;;;10.80;99.90;;;;;;4926092;29;20083;-88
2021/05/01 10:46:32;;;;;;;29.52;19.23;;;10.70;99.90;;;;;;4930513;29;20034;-87
2021/05/01 10:49:01;;;;;;;30.42;20.05;;;10.80;99.90;;;;;;4938474;28;20041;-88
2021/05/01 10:51:30;;;;;;;29.88;20.05;;;10.90;99.90;;;;;;4961815;28;20030;-87
2021/05/01 10:54:16;;;;;;;30.35;19.98;;;11.10;99.90;;;;;;4951112;28;20025;-89
2021/05/01 10:56:54;;;;;;;28.83;19.48;;;11.40;99.90;;;;;;4962076;28;20023;-88
2021/05/01 10:59:23;;;;;;;28.75;17.98;;;11.60;99.90;;;;;;4951494;28;20027;-88
2021/05/01 11:01:51;;;;;;;28.25;19.00;;;11.60;99.90;;;;;;4970195;28;20031;-89
2021/05/01 11:04:20;;;;;;;26.80;18.58;;;11.50;99.90;;;;;;4951405;28;20035;-88
2021/05/01 11:07:06;;;;;;;28.42;18.15;;;11.40;99.90;;;;;;4952817;28;20027;-88
2021/05/01 11:09:45;;;;;;;26.00;17.33;;;11.10;99.90;;;;;;4952964;28;20117;-88
2021/05/01 11:12:13;;;;;;;26.67;18.50;;;11.10;99.90;;;;;;4950239;29;20043;-88
2021/05/01 11:15:08;;;;;;;29.95;19.55;;;11.20;99.90;;;;;;4956627;28;20488;-89
2021/05/01 11:17:37;;;;;;;30.45;20.23;;;11.20;99.90;;;;;;4946695;28;20027;-88
2021/05/01 11:20:14;;;;;;;29.73;19.90;;;11.30;99.90;;;;;;4972763;28;20094;-89
2021/05/01 11:22:43;;;;;;;31.70;20.95;;;11.30;99.90;;;;;;4958798;28;20019;-88
2021/05/01 11:25:11;;;;;;;29.80;20.60;;;11.40;99.90;;;;;;4953696;28;20015;-88
2021/05/01 11:27:38;;;;;;;31.15;20.10;;;11.20;99.90;;;;;;4964912;28;20038;-89
2021/05/01 11:30:06;;;;;;;32.45;19.95;;;11.30;99.90;;;;;;4957520;28;20035;-88
2021/05/01 11:32:31;;;;;;;28.60;20.50;;;11.00;99.90;;;;;;4950514;28;20023;-88
2021/05/01 11:35:05;;;;;;;31.60;21.42;;;11.00;99.90;;;;;;4965592;28;20113;-88
2021/05/01 11:37:38;;;;;;;32.75;21.00;;;11.10;99.90;;;;;;4964014;28;20031;-88
2021/05/01 11:40:05;;;;;;;31.75;21.52;;;11.00;99.90;;;;;;4972303;28;20019;-88
2021/05/01 11:42:32;;;;;;;29.73;21.08;;;11.10;99.90;;;;;;4960703;28;20340;-88
2021/05/01 11:44:58;;;;;;;28.25;19.63;;;11.10;99.90;;;;;;4959665;28;20121;-88
2021/05/01 11:47:28;;;;;;;31.80;21.80;;;11.10;99.90;;;;;;4959614;28;20019;-88
2021/05/01 11:49:55;;;;;;;36.08;22.08;;;11.10;99.90;;;;;;4956421;28;20114;-88
2021/05/01 11:53:09;;;;;;;28.45;19.35;;;11.20;99.90;;;;;;4962749;28;20173;-89
2021/05/01 11:55:57;;;;;;;28.27;20.50;;;11.30;99.90;;;;;;4937832;28;20062;-88
2021/05/01 11:58:34;;;;;;;28.10;19.88;;;11.40;99.90;;;;;;4963561;28;20139;-88
2021/05/01 12:01:16;;;;;;;28.15;18.95;;;11.70;99.90;;;;;;4966965;28;20027;-88
2021/05/01 12:03:52;;;;;;;29.65;20.13;;;11.90;99.90;;;;;;4957473;28;20045;-88
2021/05/01 12:06:28;;;;;;;28.52;18.75;;;12.30;99.90;;;;;;4972339;28;20035;-88
2021/05/01 12:09:18;;;;;;;28.65;19.98;;;12.10;99.90;;;;;;4972473;28;20101;-88
2021/05/01 12:11:46;;;;;;;29.52;20.17;;;12.30;99.90;;;;;;4954082;28;20679;-89
2021/05/01 12:14:12;;;;;;;27.23;19.13;;;12.30;99.90;;;;;;4959905;28;20046;-88
2021/05/01 12:16:39;;;;;;;30.35;20.58;;;12.40;99.90;;;;;;4952632;28;20031;-88
2021/05/01 12:19:06;;;;;;;28.52;19.05;;;12.20;99.90;;;;;;4958246;28;20029;-88
2021/05/01 12:21:41;;;;;;;29.88;19.88;;;12.30;99.90;;;;;;4958212;28;20029;-88
2021/05/01 12:24:33;;;;;;;30.25;20.00;;;12.50;99.90;;;;;;4954591;29;20042;-87
2021/05/01 12:26:59;;;;;;;;;;;12.20;99.90;;;;;;4954308;28;20031;-88
2021/05/01 12:29:33;;;;;;;30.33;20.13;;;12.20;99.90;;;;;;4955290;28;20343;-88
2021/05/01 12:32:06;;;;;;;32.63;21.60;;;12.10;99.90;;;;;;4956281;28;20031;-88
2021/05/01 12:34:47;;;;;;;30.52;21.60;;;12.00;99.90;;;;;;4960192;28;20034;-88
2021/05/01 12:37:14;;;;;;;29.42;19.58;;;12.00;99.90;;;;;;4961866;28;20030;-88
2021/05/01 12:39:40;;;;;;;28.60;20.25;;;12.00;99.90;;;;;;4952877;28;20128;-88
2021/05/01 12:42:32;;;;;;;29.35;21.05;;;12.00;99.90;;;;;;4956180;28;20031;-88
2021/05/01 12:44:59;;;;;;;29.73;21.20;;;12.00;99.90;;;;;;4950534;28;20031;-88